Time;durP1;ratioP1;P1;durP2;ratioP2;P2;SDS_P1;SDS_P2;PMS_P1;PMS_P2;Temp;Humidity;BMP_temperature;BMP_pressure;BME280_temperature;BME280_humidity;BME280_pressure;Samples;Min_cycle;Max_cycle;Signal;HPM_P1;HPM_P2
2021/08/16 00:00:58;;;;;;;18.33;5.28;;;;;;;;;;5028017;28;20586;-69
2021/08/16 00:03:23;;;;;;;17.83;5.57;;;;;;;;;;5030972;28;20272;-67
2021/08/16 00:05:48;;;;;;;14.70;5.23;;;;;;;;;;5030689;28;20214;-69
2021/08/16 00:08:13;;;;;;;18.92;5.05;;;;;;;;;;5032918;28;21933;-69
2021/08/16 00:10:38;;;;;;;18.80;4.93;;;;;;;;;;5039063;28;20205;-70
2021/08/16 00:13:04;;;;;;;14.10;4.38;;;;;;;;;;5048574;28;20434;-69
2021/08/16 00:15:29;;;;;;;21.55;5.50;;;;;;;;;;5048121;28;20264;-67
2021/08/16 00:17:54;;;;;;;15.27;4.43;;;;;;;;;;5047719;28;20177;-69
2021/08/16 00:20:19;;;;;;;17.60;5.33;;;;;;;;;;5046745;28;20670;-70
2021/08/16 00:22:44;;;;;;;22.20;5.72;;;;;;;;;;5045535;28;20583;-69
2021/08/16 00:25:10;;;;;;;20.17;4.82;;;;;;;;;;5044175;28;20242;-70
2021/08/16 00:27:35;;;;;;;15.00;4.57;;;;;;;;;;5047197;28;20173;-69
2021/08/16 00:30:01;;;;;;;22.20;4.60;;;;;;;;;;5048852;28;21756;-69
2021/08/16 00:32:26;;;;;;;21.17;5.55;;;;;;;;;;5048344;28;20169;-67
2021/08/16 00:34:51;;;;;;;19.60;6.32;;;;;;;;;;5026597;28;20169;-69
2021/08/16 00:37:16;;;;;;;18.17;4.05;;;;;;;;;;5039783;28;20283;-70
2021/08/16 00:39:42;;;;;;;20.37;5.07;;;;;;;;;;5045935;28;20223;-69
2021/08/16 00:42:09;;;;;;;16.13;4.57;;;;;;;;;;5041512;28;20426;-70
2021/08/16 00:44:34;;;;;;;8.50;3.90;;;;;;;;;;5043346;28;20974;-70
2021/08/16 00:47:00;;;;;;;22.55;6.28;;;;;;;;;;5047147;28;20177;-69
2021/08/16 00:49:25;;;;;;;16.02;5.20;;;;;;;;;;5048549;28;20679;-69
2021/08/16 00:51:50;;;;;;;16.93;4.57;;;;;;;;;;5045135;28;20210;-70
2021/08/16 00:54:16;;;;;;;17.15;4.80;;;;;;;;;;5047104;28;20426;-68
2021/08/16 00:56:41;;;;;;;19.58;5.40;;;;;;;;;;5048032;28;20596;-70
2021/08/16 00:59:07;;;;;;;18.67;5.93;;;;;;;;;;5047104;28;20622;-70
2021/08/16 01:01:32;;;;;;;18.85;4.50;;;;;;;;;;5043948;28;20438;-69
2021/08/16 01:04:00;;;;;;;16.73;5.88;;;;;;;;;;5044060;28;20212;-69
2021/08/16 01:06:26;;;;;;;12.77;4.68;;;;;;;;;;5044237;28;20173;-67
2021/08/16 01:08:51;;;;;;;18.80;4.35;;;;;;;;;;5045353;28;20216;-70
2021/08/16 01:11:17;;;;;;;17.65;4.95;;;;;;;;;;5046329;28;20260;-70
2021/08/16 01:13:42;;;;;;;15.00;4.03;;;;;;;;;;5050867;28;20712;-67
2021/08/16 01:16:08;;;;;;;19.20;4.78;;;;;;;;;;5039646;28;20656;-66
2021/08/16 01:18:34;;;;;;;17.25;5.13;;;;;;;;;;5038465;28;20564;-67
2021/08/16 01:21:01;;;;;;;14.88;3.85;;;;;;;;;;5042221;28;20217;-67
2021/08/16 01:23:26;;;;;;;13.68;3.40;;;;;;;;;;5025935;28;20253;-69
2021/08/16 01:25:51;;;;;;;16.58;4.07;;;;;;;;;;5047519;28;20174;-70
2021/08/16 01:28:17;;;;;;;12.98;4.07;;;;;;;;;;5048167;28;20624;-69
2021/08/16 01:30:43;;;;;;;14.90;3.88;;;;;;;;;;5047031;28;20683;-68
2021/08/16 01:33:09;;;;;;;15.40;4.15;;;;;;;;;;5043101;28;20234;-69
2021/08/16 01:35:34;;;;;;;15.48;3.70;;;;;;;;;;5048592;28;20181;-69
2021/08/16 01:37:59;;;;;;;15.55;3.92;;;;;;;;;;5048716;28;20178;-68
2021/08/16 01:40:24;;;;;;;19.65;4.35;;;;;;;;;;5048178;28;20201;-69
2021/08/16 01:42:49;;;;;;;14.90;3.47;;;;;;;;;;5047436;28;20186;-69
2021/08/16 01:45:15;;;;;;;15.02;3.85;;;;;;;;;;5048311;28;20197;-69
2021/08/16 01:47:40;;;;;;;11.40;3.60;;;;;;;;;;5048572;28;20386;-69
2021/08/16 01:50:06;;;;;;;14.23;4.07;;;;;;;;;;5049195;28;20255;-69
2021/08/16 01:52:31;;;;;;;15.00;3.88;;;;;;;;;;5046793;28;20174;-69
2021/08/16 01:54:56;;;;;;;9.40;3.30;;;;;;;;;;5047105;28;20255;-69
2021/08/16 01:57:21;;;;;;;13.30;4.32;;;;;;;;;;5052762;28;20497;-70
2021/08/16 01:59:47;;;;;;;10.13;3.20;;;;;;;;;;5052685;28;20209;-69
2021/08/16 02:02:12;;;;;;;14.70;3.28;;;;;;;;;;5050730;28;20182;-70
2021/08/16 02:04:37;;;;;;;16.20;3.70;;;;;;;;;;5047128;28;20201;-69
2021/08/16 02:07:02;;;;;;;15.10;4.03;;;;;;;;;;5051860;28;20473;-70
2021/08/16 02:09:28;;;;;;;12.85;3.45;;;;;;;;;;5033900;28;20438;-66
2021/08/16 02:11:53;;;;;;;14.50;3.35;;;;;;;;;;5051572;28;20216;-69
2021/08/16 02:14:18;;;;;;;13.70;4.10;;;;;;;;;;5052742;28;20737;-70
2021/08/16 02:16:43;;;;;;;12.57;3.55;;;;;;;;;;5052881;28;20541;-69
2021/08/16 02:19:09;;;;;;;15.32;4.10;;;;;;;;;;5053080;28;20201;-70
2021/08/16 02:21:34;;;;;;;10.52;3.42;;;;;;;;;;5078173;22;20220;-69
2021/08/16 02:23:59;;;;;;;12.05;3.45;;;;;;;;;;5067165;28;20200;-69
2021/08/16 02:26:24;;;;;;;12.33;3.23;;;;;;;;;;5069615;28;20177;-69
2021/08/16 02:28:50;;;;;;;11.73;3.30;;;;;;;;;;5073079;28;20412;-70
2021/08/16 02:31:20;;;;;;;19.60;4.90;;;;;;;;;;5056766;28;20543;-68
2021/08/16 02:33:45;;;;;;;10.38;2.83;;;;;;;;;;5042136;28;20434;-69
2021/08/16 02:36:11;;;;;;;17.30;3.88;;;;;;;;;;5048220;28;20186;-68
2021/08/16 02:38:36;;;;;;;16.27;4.00;;;;;;;;;;5052532;28;20181;-68
2021/08/16 02:41:01;;;;;;;13.52;3.65;;;;;;;;;;5052059;28;20231;-68
2021/08/16 02:43:28;;;;;;;11.17;2.87;;;;;;;;;;5048176;28;20620;-69
2021/08/16 02:45:53;;;;;;;12.82;3.40;;;;;;;;;;5051230;28;20437;-69
2021/08/16 02:48:18;;;;;;;11.77;3.28;;;;;;;;;;5051949;28;20322;-69
2021/08/16 02:50:44;;;;;;;9.38;3.15;;;;;;;;;;5051857;28;20260;-69
2021/08/16 02:53:09;;;;;;;15.18;4.78;;;;;;;;;;5029320;28;20652;-68
2021/08/16 02:55:34;;;;;;;16.50;3.90;;;;;;;;;;5051935;28;20555;-69
2021/08/16 02:57:59;;;;;;;12.70;3.43;;;;;;;;;;5052048;28;20431;-69
2021/08/16 03:00:24;;;;;;;23.70;4.30;;;;;;;;;;5048808;28;21034;-69
2021/08/16 03:02:50;;;;;;;14.88;3.53;;;;;;;;;;5053016;28;20430;-69
2021/08/16 03:05:15;;;;;;;14.50;3.97;;;;;;;;;;5050527;28;20251;-69
2021/08/16 03:07:40;;;;;;;17.23;4.55;;;;;;;;;;5052353;28;20174;-70
2021/08/16 03:10:09;;;;;;;11.65;3.08;;;;;;;;;;5051722;28;20190;-69
2021/08/16 03:12:35;;;;;;;17.23;3.75;;;;;;;;;;5033863;28;20314;-69
2021/08/16 03:15:00;;;;;;;13.88;3.95;;;;;;;;;;5050804;28;20264;-70
2021/08/16 03:17:26;;;;;;;14.95;3.97;;;;;;;;;;5053585;28;20216;-69
2021/08/16 03:19:51;;;;;;;11.00;2.95;;;;;;;;;;5062348;28;20194;-70
2021/08/16 03:22:16;;;;;;;15.93;3.10;;;;;;;;;;5042370;28;20200;-70
2021/08/16 03:24:42;;;;;;;11.00;3.13;;;;;;;;;;5049922;28;20224;-70
2021/08/16 03:27:07;;;;;;;11.10;4.82;;;;;;;;;;5024385;28;20429;-70
2021/08/16 03:29:32;;;;;;;11.73;3.13;;;;;;;;;;5050924;28;20643;-70
2021/08/16 03:32:00;;;;;;;16.45;3.83;;;;;;;;;;5051360;28;20181;-69
2021/08/16 03:34:26;;;;;;;12.60;3.72;;;;;;;;;;5050834;28;20213;-69
2021/08/16 03:36:51;;;;;;;9.27;3.10;;;;;;;;;;5051493;28;20621;-69
2021/08/16 03:39:16;;;;;;;10.27;3.10;;;;;;;;;;5049759;28;20504;-69
2021/08/16 03:41:41;;;;;;;13.00;4.10;;;;;;;;;;5032820;28;20453;-69
2021/08/16 03:44:06;;;;;;;12.25;3.20;;;;;;;;;;5049426;28;20813;-69
2021/08/16 03:46:32;;;;;;;14.45;3.67;;;;;;;;;;5050937;28;20205;-69
2021/08/16 03:48:57;;;;;;;16.52;3.85;;;;;;;;;;5049073;28;20185;-69
2021/08/16 03:51:22;;;;;;;7.70;3.30;;;;;;;;;;5050077;28;20190;-69
2021/08/16 03:53:47;;;;;;;9.88;3.05;;;;;;;;;;5048790;28;20545;-69
2021/08/16 03:56:12;;;;;;;17.17;3.73;;;;;;;;;;5050734;28;20189;-69
2021/08/16 03:58:38;;;;;;;8.68;2.88;;;;;;;;;;5032241;28;20419;-70
2021/08/16 04:01:03;;;;;;;12.70;4.30;;;;;;;;;;5049942;28;20230;-69
2021/08/16 04:03:29;;;;;;;11.75;3.50;;;;;;;;;;5049593;28;20173;-69
2021/08/16 04:05:54;;;;;;;11.10;3.55;;;;;;;;;;5051958;28;20691;-69
2021/08/16 04:08:19;;;;;;;10.20;3.10;;;;;;;;;;5049752;28;20259;-69
2021/08/16 04:10:44;;;;;;;9.00;3.47;;;;;;;;;;5032009;28;20446;-69
2021/08/16 04:13:09;;;;;;;13.77;3.13;;;;;;;;;;5048853;28;20484;-69
2021/08/16 04:15:34;;;;;;;12.43;3.70;;;;;;;;;;5051450;28;20450;-69
2021/08/16 04:17:59;;;;;;;17.00;3.83;;;;;;;;;;5049756;28;20981;-68
2021/08/16 04:20:25;;;;;;;8.60;2.80;;;;;;;;;;5048886;28;20533;-70
2021/08/16 04:22:50;;;;;;;8.73;3.00;;;;;;;;;;5047823;28;20808;-68
2021/08/16 04:25:16;;;;;;;13.05;3.20;;;;;;;;;;5048524;28;20205;-69
2021/08/16 04:27:42;;;;;;;11.10;3.40;;;;;;;;;;5024818;28;20892;-69
2021/08/16 04:30:08;;;;;;;12.70;3.55;;;;;;;;;;5045156;28;20193;-69
2021/08/16 04:32:33;;;;;;;9.23;2.83;;;;;;;;;;5048880;28;20174;-68
2021/08/16 04:34:58;;;;;;;7.57;2.55;;;;;;;;;;5030670;28;20203;-69
2021/08/16 04:37:23;;;;;;;13.80;3.60;;;;;;;;;;5049091;28;20196;-68
2021/08/16 04:39:48;;;;;;;11.00;3.55;;;;;;;;;;5050686;28;20430;-70
2021/08/16 04:42:14;;;;;;;15.32;3.53;;;;;;;;;;5049669;28;20201;-68
2021/08/16 04:44:39;;;;;;;9.63;3.00;;;;;;;;;;5030928;28;20292;-70
2021/08/16 04:47:04;;;;;;;12.38;3.30;;;;;;;;;;5044309;28;20620;-69
2021/08/16 04:49:30;;;;;;;10.88;4.05;;;;;;;;;;5049268;28;20182;-69
2021/08/16 04:51:55;;;;;;;9.32;3.25;;;;;;;;;;5049660;28;20177;-70
2021/08/16 04:54:20;;;;;;;17.60;4.05;;;;;;;;;;5048710;28;20194;-69
2021/08/16 04:56:45;;;;;;;10.15;2.72;;;;;;;;;;5048501;28;20211;-69
2021/08/16 04:59:10;;;;;;;9.05;3.00;;;;;;;;;;5032629;28;20197;-69
2021/08/16 05:01:37;;;;;;;10.27;3.40;;;;;;;;;;5049521;28;20205;-69
2021/08/16 05:04:02;;;;;;;9.50;2.80;;;;;;;;;;5047726;28;20469;-70
2021/08/16 05:06:32;;;;;;;9.60;3.55;;;;;;;;;;5030730;28;20560;-69
2021/08/16 05:08:58;;;;;;;10.02;3.35;;;;;;;;;;5044041;28;20247;-69
2021/08/16 05:11:24;;;;;;;13.38;3.97;;;;;;;;;;5050406;28;20194;-69
2021/08/16 05:13:49;;;;;;;6.60;3.00;;;;;;;;;;5050661;28;20205;-69
2021/08/16 05:16:23;;;;;;;8.30;3.10;;;;;;;;;;5050624;28;20205;-69
2021/08/16 05:18:48;;;;;;;14.35;3.92;;;;;;;;;;5030405;28;20861;-69
2021/08/16 05:21:13;;;;;;;11.10;3.65;;;;;;;;;;5050123;28;20221;-69
2021/08/16 05:23:38;;;;;;;12.37;3.30;;;;;;;;;;5045740;28;20596;-70
2021/08/16 05:26:04;;;;;;;9.17;3.83;;;;;;;;;;5048550;28;20470;-73
2021/08/16 05:28:29;;;;;;;12.87;4.20;;;;;;;;;;5050753;28;20851;-77
2021/08/16 05:30:54;;;;;;;8.07;3.83;;;;;;;;;;5055830;28;20449;-77
2021/08/16 05:33:20;;;;;;;13.60;4.20;;;;;;;;;;5057395;28;20174;-77
2021/08/16 05:35:45;;;;;;;8.63;3.70;;;;;;;;;;5055051;28;20178;-74
2021/08/16 05:38:11;;;;;;;7.68;4.68;;;;;;;;;;5053504;28;20185;-76
2021/08/16 05:40:36;;;;;;;6.38;3.80;;;;;;;;;;5054277;28;20679;-75
2021/08/16 05:43:01;;;;;;;5.13;2.50;;;;;;;;;;5053508;28;20567;-73
2021/08/16 05:45:26;;;;;;;4.93;2.22;;;;;;;;;;5052802;28;20201;-75
2021/08/16 05:47:51;;;;;;;11.32;4.03;;;;;;;;;;5034990;28;20188;-78
2021/08/16 05:50:17;;;;;;;5.03;2.70;;;;;;;;;;5050321;28;20586;-75
2021/08/16 05:52:42;;;;;;;4.47;1.90;;;;;;;;;;5053714;28;20178;-75
2021/08/16 05:55:08;;;;;;;2.25;1.80;;;;;;;;;;5035928;28;20180;-76
2021/08/16 05:57:33;;;;;;;5.10;2.35;;;;;;;;;;5034619;28;20560;-75
2021/08/16 05:59:59;;;;;;;6.15;2.53;;;;;;;;;;5053509;28;20251;-73
2021/08/16 06:02:24;;;;;;;4.47;2.55;;;;;;;;;;5053565;28;20182;-75
2021/08/16 06:04:49;;;;;;;3.05;2.00;;;;;;;;;;5035551;28;20674;-76
2021/08/16 06:07:15;;;;;;;5.78;2.65;;;;;;;;;;5053139;28;20177;-74
2021/08/16 06:09:41;;;;;;;5.75;2.97;;;;;;;;;;5053222;28;20170;-75
2021/08/16 06:12:06;;;;;;;5.95;2.90;;;;;;;;;;5051384;28;20557;-75
2021/08/16 06:14:31;;;;;;;6.47;2.78;;;;;;;;;;5052390;28;20256;-75
2021/08/16 06:16:56;;;;;;;4.47;2.72;;;;;;;;;;5053442;28;20181;-75
2021/08/16 06:19:22;;;;;;;4.63;3.70;;;;;;;;;;5052285;28;20235;-75
2021/08/16 06:21:47;;;;;;;6.63;3.72;;;;;;;;;;5033177;28;20474;-74
2021/08/16 06:24:12;;;;;;;4.25;2.88;;;;;;;;;;5052235;28;20570;-75
2021/08/16 06:26:38;;;;;;;4.70;2.75;;;;;;;;;;5051225;28;20185;-75
2021/08/16 06:29:03;;;;;;;7.50;3.15;;;;;;;;;;5055750;28;20180;-75
2021/08/16 06:31:29;;;;;;;4.57;2.80;;;;;;;;;;5035158;28;20679;-75
2021/08/16 06:33:54;;;;;;;5.93;3.10;;;;;;;;;;5053268;28;20177;-77
2021/08/16 06:36:19;;;;;;;6.50;3.00;;;;;;;;;;5053270;28;20178;-76
2021/08/16 06:38:47;;;;;;;5.80;2.70;;;;;;;;;;5052773;28;20573;-76
2021/08/16 06:41:13;;;;;;;4.95;3.00;;;;;;;;;;5052866;28;20571;-77
2021/08/16 06:43:38;;;;;;;6.20;3.17;;;;;;;;;;5053117;28;20551;-76
2021/08/16 06:46:03;;;;;;;15.52;4.35;;;;;;;;;;5051453;28;20210;-76
2021/08/16 06:48:29;;;;;;;8.25;3.50;;;;;;;;;;5053004;28;20200;-77
2021/08/16 06:50:54;;;;;;;10.00;3.88;;;;;;;;;;5052871;28;20198;-77
2021/08/16 06:53:19;;;;;;;4.65;2.95;;;;;;;;;;5052282;28;20200;-77
2021/08/16 06:55:45;;;;;;;4.40;3.05;;;;;;;;;;5053746;28;20181;-77
2021/08/16 06:58:11;;;;;;;8.63;3.00;;;;;;;;;;5053510;28;20227;-77
2021/08/16 07:00:39;;;;;;;10.55;3.80;;;;;;;;;;5057544;28;20205;-78
2021/08/16 07:03:05;;;;;;;7.43;3.33;;;;;;;;;;5040984;28;20177;-76
2021/08/16 07:05:30;;;;;;;9.85;3.63;;;;;;;;;;5051394;28;20329;-77
2021/08/16 07:07:55;;;;;;;8.77;3.77;;;;;;;;;;5034775;28;20276;-78
2021/08/16 07:10:20;;;;;;;9.80;3.20;;;;;;;;;;5053776;28;20916;-77
2021/08/16 07:12:46;;;;;;;11.73;4.20;;;;;;;;;;5054678;28;20240;-77
2021/08/16 07:15:11;;;;;;;10.63;3.65;;;;;;;;;;5050493;28;20204;-76
2021/08/16 07:17:36;;;;;;;7.95;3.83;;;;;;;;;;5050119;28;20188;-77
2021/08/16 07:20:02;;;;;;;8.68;3.63;;;;;;;;;;5049012;28;20213;-77
2021/08/16 07:22:28;;;;;;;10.25;3.45;;;;;;;;;;5051920;28;20269;-76
2021/08/16 07:24:53;;;;;;;7.68;3.38;;;;;;;;;;5052079;28;20209;-74
2021/08/16 07:27:18;;;;;;;7.43;3.35;;;;;;;;;;5051550;28;20178;-75
2021/08/16 07:29:43;;;;;;;7.35;3.90;;;;;;;;;;5048436;28;20553;-76
2021/08/16 07:32:08;;;;;;;8.85;5.30;;;;;;;;;;5050114;28;20212;-76
2021/08/16 07:34:36;;;;;;;9.82;4.30;;;;;;;;;;5050888;28;20193;-77
2021/08/16 07:37:01;;;;;;;6.82;3.58;;;;;;;;;;5050095;28;20181;-77
2021/08/16 07:39:26;;;;;;;7.20;3.55;;;;;;;;;;5048690;28;20173;-74
2021/08/16 07:41:51;;;;;;;6.97;3.70;;;;;;;;;;5035464;28;20181;-76
2021/08/16 07:44:17;;;;;;;6.82;3.55;;;;;;;;;;5030965;28;20229;-76
2021/08/16 07:46:42;;;;;;;8.55;3.90;;;;;;;;;;5050565;28;20177;-77
2021/08/16 07:49:07;;;;;;;9.15;3.42;;;;;;;;;;5032541;28;20177;-76
2021/08/16 07:51:32;;;;;;;6.22;3.58;;;;;;;;;;5049511;28;20570;-77
2021/08/16 07:53:57;;;;;;;9.20;3.90;;;;;;;;;;5047884;28;20323;-76
2021/08/16 07:56:23;;;;;;;7.87;3.60;;;;;;;;;;5049584;28;20177;-77
2021/08/16 07:58:48;;;;;;;7.57;4.45;;;;;;;;;;5050047;28;20789;-77
2021/08/16 08:01:13;;;;;;;8.98;4.15;;;;;;;;;;5031643;28;20198;-77
2021/08/16 08:03:38;;;;;;;7.93;3.45;;;;;;;;;;5051704;28;20188;-75
2021/08/16 08:06:04;;;;;;;5.55;3.10;;;;;;;;;;5051032;28;20181;-77
2021/08/16 08:08:29;;;;;;;9.70;3.22;;;;;;;;;;5050887;28;20670;-77
2021/08/16 08:10:54;;;;;;;8.90;3.70;;;;;;;;;;5050300;28;20756;-77
2021/08/16 08:13:20;;;;;;;7.72;3.10;;;;;;;;;;5053673;28;20253;-78
2021/08/16 08:15:45;;;;;;;6.75;3.10;;;;;;;;;;5031756;28;20177;-78
2021/08/16 08:18:11;;;;;;;8.45;3.30;;;;;;;;;;5033345;28;20611;-79
2021/08/16 08:20:36;;;;;;;6.80;2.65;;;;;;;;;;5039672;22;20249;-79
2021/08/16 08:23:03;;;;;;;5.85;2.47;;;;;;;;;;5031192;28;20236;-78
2021/08/16 08:25:28;;;;;;;6.13;2.95;;;;;;;;;;5027590;28;20240;-78
2021/08/16 08:27:53;;;;;;;7.53;2.45;;;;;;;;;;5013819;28;20206;-76
2021/08/16 08:30:19;;;;;;;6.97;2.40;;;;;;;;;;5028854;28;20640;-78
2021/08/16 08:32:47;;;;;;;6.00;2.47;;;;;;;;;;5023707;28;20560;-78
2021/08/16 08:35:12;;;;;;;5.43;2.53;;;;;;;;;;5006782;28;20549;-79
2021/08/16 08:37:37;;;;;;;7.05;3.42;;;;;;;;;;5011610;28;20229;-79
2021/08/16 08:40:02;;;;;;;5.53;3.15;;;;;;;;;;5013085;28;20187;-78
2021/08/16 08:42:28;;;;;;;7.38;3.28;;;;;;;;;;5015668;28;20190;-78
2021/08/16 08:44:54;;;;;;;8.77;3.38;;;;;;;;;;5007274;28;20282;-77
2021/08/16 08:47:20;;;;;;;7.35;3.72;;;;;;;;;;5019395;28;20182;-77
2021/08/16 08:49:45;;;;;;;9.02;3.40;;;;;;;;;;5005303;28;20232;-77
2021/08/16 08:52:10;;;;;;;6.20;3.28;;;;;;;;;;4990077;28;20731;-77
2021/08/16 08:54:36;;;;;;;9.35;3.78;;;;;;;;;;5006144;28;20175;-76
2021/08/16 08:57:01;;;;;;;8.18;3.17;;;;;;;;;;5007694;28;20265;-77
2021/08/16 08:59:26;;;;;;;9.40;3.90;;;;;;;;;;5013233;28;20183;-75
2021/08/16 09:01:55;;;;;;;11.80;4.78;;;;;;;;;;5011259;28;20202;-73
2021/08/16 09:04:21;;;;;;;6.38;4.10;;;;;;;;;;5007748;28;20202;-76
2021/08/16 09:06:46;;;;;;;9.75;4.65;;;;;;;;;;5014548;28;20190;-75
2021/08/16 09:09:12;;;;;;;8.70;4.28;;;;;;;;;;5008440;28;20178;-77
2021/08/16 09:11:37;;;;;;;9.95;5.03;;;;;;;;;;5012159;28;20198;-76
2021/08/16 09:14:04;;;;;;;12.85;5.88;;;;;;;;;;5011148;28;20195;-75
2021/08/16 09:16:30;;;;;;;7.13;4.70;;;;;;;;;;5009539;28;20181;-76
2021/08/16 09:18:56;;;;;;;9.93;5.47;;;;;;;;;;5008726;28;20201;-75
2021/08/16 09:21:27;;;;;;;14.55;4.80;;;;;;;;;;5012260;28;20767;-72
2021/08/16 09:23:53;;;;;;;13.93;5.72;;;;;;;;;;4993136;28;21017;-75
2021/08/16 09:26:23;;;;;;;12.00;5.18;;;;;;;;;;5011368;28;20186;-71
2021/08/16 09:28:49;;;;;;;9.20;4.90;;;;;;;;;;5005159;28;20187;-72
2021/08/16 09:31:15;;;;;;;11.68;5.15;;;;;;;;;;5012613;28;20203;-75
2021/08/16 09:33:57;;;;;;;8.15;4.82;;;;;;;;;;5009081;28;20600;-76
2021/08/16 09:36:38;;;;;;;11.38;5.28;;;;;;;;;;5013304;28;20656;-73
2021/08/16 09:39:15;;;;;;;11.07;5.68;;;;;;;;;;5009973;28;20262;-71
2021/08/16 09:41:41;;;;;;;15.27;5.28;;;;;;;;;;5009321;28;20260;-75
2021/08/16 09:44:08;;;;;;;9.65;5.93;;;;;;;;;;5009871;28;20210;-73
2021/08/16 09:46:33;;;;;;;13.13;5.20;;;;;;;;;;4996592;28;20386;-71
2021/08/16 09:49:02;;;;;;;10.70;5.35;;;;;;;;;;5010520;28;20288;-71
2021/08/16 09:51:27;;;;;;;9.70;5.13;;;;;;;;;;5006350;28;20205;-73
2021/08/16 09:53:52;;;;;;;15.20;5.27;;;;;;;;;;5017693;28;20182;-73
2021/08/16 09:56:18;;;;;;;8.88;5.35;;;;;;;;;;5013212;28;20427;-72
2021/08/16 09:58:43;;;;;;;12.13;5.88;;;;;;;;;;4990826;28;20238;-73
2021/08/16 10:01:09;;;;;;;10.52;5.45;;;;;;;;;;5010532;28;20278;-72
2021/08/16 10:03:36;;;;;;;11.95;6.45;;;;;;;;;;5013646;28;20194;-70
2021/08/16 10:06:01;;;;;;;11.38;6.35;;;;;;;;;;5011066;28;20217;-71
2021/08/16 10:08:27;;;;;;;10.30;6.25;;;;;;;;;;5006628;28;20175;-73
2021/08/16 10:10:53;;;;;;;8.47;5.23;;;;;;;;;;5012168;28;20662;-72
2021/08/16 10:13:21;;;;;;;9.27;4.40;;;;;;;;;;4992087;28;20519;-71
2021/08/16 10:15:47;;;;;;;9.55;3.85;;;;;;;;;;5007628;28;20597;-71
2021/08/16 10:18:14;;;;;;;4.75;3.03;;;;;;;;;;5007009;28;20265;-73
2021/08/16 10:20:39;;;;;;;7.95;3.38;;;;;;;;;;5010844;28;20428;-71
2021/08/16 10:23:21;;;;;;;10.88;3.50;;;;;;;;;;5016405;28;20175;-71
2021/08/16 10:25:48;;;;;;;9.27;3.45;;;;;;;;;;5010007;28;20214;-73
2021/08/16 10:28:32;;;;;;;5.85;2.72;;;;;;;;;;5011379;28;20187;-70
2021/08/16 10:30:59;;;;;;;5.85;3.20;;;;;;;;;;5008649;28;20284;-70
2021/08/16 10:33:25;;;;;;;3.58;2.33;;;;;;;;;;5011285;28;20222;-70
2021/08/16 10:35:50;;;;;;;7.32;2.88;;;;;;;;;;5009024;28;20219;-71
2021/08/16 10:38:16;;;;;;;5.50;2.50;;;;;;;;;;5012306;28;20179;-73
2021/08/16 10:40:43;;;;;;;4.85;2.78;;;;;;;;;;5012886;28;20322;-72
2021/08/16 10:43:09;;;;;;;4.00;2.45;;;;;;;;;;5010012;28;20179;-72
2021/08/16 10:45:41;;;;;;;4.85;2.40;;;;;;;;;;5010650;28;20203;-69
2021/08/16 10:48:07;;;;;;;7.90;2.53;;;;;;;;;;5009228;28;20186;-71
2021/08/16 10:50:33;;;;;;;7.95;2.50;;;;;;;;;;5011510;28;20199;-72
2021/08/16 10:53:10;;;;;;;3.50;2.63;;;;;;;;;;5010976;28;20210;-70
2021/08/16 10:55:36;;;;;;;6.32;3.35;;;;;;;;;;5009858;28;20267;-71
2021/08/16 10:58:04;;;;;;;6.03;4.47;;;;;;;;;;5018200;28;20185;-70
2021/08/16 11:00:30;;;;;;;9.10;4.28;;;;;;;;;;5008758;28;20224;-71
2021/08/16 11:02:56;;;;;;;8.05;4.78;;;;;;;;;;4990577;28;20179;-70
2021/08/16 11:05:51;;;;;;;6.82;4.63;;;;;;;;;;5007651;28;20210;-71
2021/08/16 11:08:16;;;;;;;7.47;4.70;;;;;;;;;;4996574;28;20546;-70
2021/08/16 11:10:43;;;;;;;7.63;4.88;;;;;;;;;;5005792;28;20229;-71
2021/08/16 11:13:09;;;;;;;7.22;4.65;;;;;;;;;;5004635;28;20179;-72
2021/08/16 11:15:35;;;;;;;5.35;3.83;;;;;;;;;;5006646;28;20179;-72
2021/08/16 11:18:10;;;;;;;7.40;4.38;;;;;;;;;;5008619;28;20172;-71
2021/08/16 11:20:35;;;;;;;6.03;3.58;;;;;;;;;;5003882;28;20206;-72
2021/08/16 11:23:00;;;;;;;7.27;3.70;;;;;;;;;;5008932;28;20201;-72
2021/08/16 11:25:25;;;;;;;6.03;3.88;;;;;;;;;;4992168;28;21000;-71
2021/08/16 11:27:50;;;;;;;4.40;3.42;;;;;;;;;;5006569;28;20257;-71
2021/08/16 11:30:16;;;;;;;8.07;3.97;;;;;;;;;;5005469;28;20178;-70
2021/08/16 11:32:41;;;;;;;7.25;4.47;;;;;;;;;;5006540;28;20645;-71
2021/08/16 11:35:07;;;;;;;9.57;4.18;;;;;;;;;;5009688;28;20183;-72
2021/08/16 11:37:34;;;;;;;7.20;3.83;;;;;;;;;;5008449;28;20282;-72
2021/08/16 11:39:59;;;;;;;9.70;4.22;;;;;;;;;;5008658;28;20179;-71
2021/08/16 11:42:25;;;;;;;6.95;3.80;;;;;;;;;;5011842;28;20616;-71
2021/08/16 11:45:02;;;;;;;5.43;4.20;;;;;;;;;;5007442;28;20637;-71
2021/08/16 11:47:31;;;;;;;8.20;3.70;;;;;;;;;;5009600;28;20170;-71
2021/08/16 11:50:00;;;;;;;7.20;3.75;;;;;;;;;;5006151;28;20186;-71
2021/08/16 11:52:26;;;;;;;6.38;3.22;;;;;;;;;;5005620;28;20191;-71
2021/08/16 11:54:51;;;;;;;7.43;3.67;;;;;;;;;;5008955;28;20177;-73
2021/08/16 11:57:19;;;;;;;6.55;3.05;;;;;;;;;;5011348;28;20182;-72
2021/08/16 11:59:48;;;;;;;7.70;2.70;;;;;;;;;;5008865;28;20206;-71
2021/08/16 12:02:14;;;;;;;10.18;3.03;;;;;;;;;;5008094;28;20261;-77
2021/08/16 12:04:39;;;;;;;13.85;3.80;;;;;;;;;;5011380;28;20207;-78
2021/08/16 12:07:05;;;;;;;13.30;4.13;;;;;;;;;;5007701;28;20183;-78
2021/08/16 12:09:34;;;;;;;10.57;3.40;;;;;;;;;;5003750;28;20262;-77
2021/08/16 12:12:00;;;;;;;11.98;3.95;;;;;;;;;;5011886;28;20722;-77
2021/08/16 12:14:31;;;;;;;8.90;3.58;;;;;;;;;;5018670;28;20257;-77
2021/08/16 12:16:57;;;;;;;15.30;5.03;;;;;;;;;;5009331;28;20187;-77
2021/08/16 12:19:22;;;;;;;8.00;3.58;;;;;;;;;;5006343;28;20253;-77
2021/08/16 12:21:59;;;;;;;8.18;3.55;;;;;;;;;;5011316;28;20322;-76
2021/08/16 12:24:24;;;;;;;14.88;3.83;;;;;;;;;;4985789;28;20281;-76
2021/08/16 12:26:57;;;;;;;7.57;3.67;;;;;;;;;;4991845;28;20727;-76
2021/08/16 12:29:23;;;;;;;14.90;3.78;;;;;;;;;;5008197;28;20425;-75
2021/08/16 12:31:48;;;;;;;7.00;4.03;;;;;;;;;;5009065;28;20206;-75
2021/08/16 12:34:14;;;;;;;9.65;3.25;;;;;;;;;;4990916;28;20221;-75
2021/08/16 12:36:40;;;;;;;10.20;3.80;;;;;;;;;;5007681;28;20553;-75
2021/08/16 12:39:10;;;;;;;8.27;3.30;;;;;;;;;;4991516;28;20203;-74
2021/08/16 12:41:36;;;;;;;3.38;2.13;;;;;;;;;;5009180;28;20207;-75
2021/08/16 12:44:01;;;;;;;10.73;2.27;;;;;;;;;;5011761;28;20186;-74
2021/08/16 12:46:36;;;;;;;10.40;2.65;;;;;;;;;;5010340;28;21013;-72
2021/08/16 12:49:03;;;;;;;7.43;2.70;;;;;;;;;;4990673;28;20557;-71
2021/08/16 12:51:29;;;;;;;8.45;2.05;;;;;;;;;;5010055;28;20229;-71
2021/08/16 12:53:56;;;;;;;8.75;2.97;;;;;;;;;;5012540;28;20206;-72
2021/08/16 12:56:21;;;;;;;9.02;2.88;;;;;;;;;;5007434;28;20229;-74
2021/08/16 12:58:46;;;;;;;6.60;2.30;;;;;;;;;;5002791;28;20191;-73
2021/08/16 13:01:18;;;;;;;6.78;3.00;;;;;;;;;;5007045;28;20652;-73
2021/08/16 13:03:43;;;;;;;10.10;2.90;;;;;;;;;;5008737;28;20671;-72
2021/08/16 13:06:08;;;;;;;6.78;2.33;;;;;;;;;;5010694;28;20294;-71
2021/08/16 13:08:34;;;;;;;10.38;2.65;;;;;;;;;;5007269;28;20209;-72
2021/08/16 13:11:00;;;;;;;8.52;2.72;;;;;;;;;;5010033;28;20278;-72
2021/08/16 13:13:25;;;;;;;7.05;3.03;;;;;;;;;;5010825;28;20179;-71
2021/08/16 13:15:50;;;;;;;10.02;3.58;;;;;;;;;;5009174;28;20191;-69
2021/08/16 13:18:16;;;;;;;6.45;2.53;;;;;;;;;;5004928;28;20269;-70
2021/08/16 13:20:41;;;;;;;10.30;2.90;;;;;;;;;;5006602;28;20226;-71
2021/08/16 13:23:06;;;;;;;6.73;3.10;;;;;;;;;;5008297;28;20995;-72
2021/08/16 13:25:34;;;;;;;9.63;3.53;;;;;;;;;;5006158;28;20447;-71
2021/08/16 13:27:59;;;;;;;9.70;3.40;;;;;;;;;;5005847;28;20179;-71
2021/08/16 13:30:24;;;;;;;6.68;2.80;;;;;;;;;;5004154;28;20277;-72
2021/08/16 13:32:49;;;;;;;8.53;3.10;;;;;;;;;;5010410;28;20575;-70
2021/08/16 13:35:14;;;;;;;8.52;3.22;;;;;;;;;;5014678;28;20424;-71
2021/08/16 13:37:39;;;;;;;7.45;3.45;;;;;;;;;;5010613;28;20229;-70
2021/08/16 13:40:05;;;;;;;5.72;2.20;;;;;;;;;;5015281;28;20202;-71
2021/08/16 13:42:33;;;;;;;5.95;3.22;;;;;;;;;;5014783;28;20175;-71
2021/08/16 13:44:58;;;;;;;7.65;3.20;;;;;;;;;;5001600;28;20215;-71
2021/08/16 13:47:24;;;;;;;6.53;2.92;;;;;;;;;;5007346;28;20182;-70
2021/08/16 13:49:49;;;;;;;12.50;2.65;;;;;;;;;;5005320;28;20526;-68
2021/08/16 13:52:14;;;;;;;7.85;2.40;;;;;;;;;;5007832;28;20247;-70
2021/08/16 13:54:39;;;;;;;5.40;2.10;;;;;;;;;;5012907;28;20599;-69
2021/08/16 13:57:04;;;;;;;10.33;3.40;;;;;;;;;;5012461;28;20753;-75
2021/08/16 13:59:30;;;;;;;5.30;2.20;;;;;;;;;;5008899;28;20790;-75
2021/08/16 14:01:55;;;;;;;4.63;1.90;;;;;;;;;;4995550;28;20571;-70
2021/08/16 14:04:20;;;;;;;7.13;2.30;;;;;;;;;;5004295;28;20699;-72
2021/08/16 14:06:46;;;;;;;7.60;2.88;;;;;;;;;;5013113;28;20439;-69
2021/08/16 14:09:13;;;;;;;8.63;2.78;;;;;;;;;;5003391;28;20213;-71
2021/08/16 14:11:39;;;;;;;7.60;2.10;;;;;;;;;;5013693;28;20202;-70
2021/08/16 14:14:04;;;;;;;10.93;2.67;;;;;;;;;;5021010;28;20182;-71
2021/08/16 14:16:29;;;;;;;7.00;3.00;;;;;;;;;;5010775;28;20287;-69
2021/08/16 14:18:54;;;;;;;7.60;2.17;;;;;;;;;;5006789;28;20187;-70
2021/08/16 14:21:19;;;;;;;6.13;1.83;;;;;;;;;;5038492;22;20224;-67
2021/08/16 14:23:44;;;;;;;5.22;1.70;;;;;;;;;;5070091;28;20418;-67
2021/08/16 14:26:10;;;;;;;8.98;3.13;;;;;;;;;;5069813;28;20593;-69
2021/08/16 14:28:35;;;;;;;7.60;2.38;;;;;;;;;;5068930;28;20176;-68
2021/08/16 14:31:01;;;;;;;7.20;2.08;;;;;;;;;;5070222;28;20278;-68